Time;durP1;ratioP1;P1;durP2;ratioP2;P2;SDS_P1;SDS_P2;PMS_P1;PMS_P2;Temp;Humidity;BMP_temperature;BMP_pressure;BME280_temperature;BME280_humidity;BME280_pressure;Samples;Min_cycle;Max_cycle;Signal;HPM_P1;HPM_P2
2022/01/19 00:00:31;;;;;;;121.95;36.53;;;4.60;99.90;;;;;;6179941;23;20545;-88
2022/01/19 00:02:56;;;;;;;127.43;37.80;;;4.60;99.90;;;;;;6154648;23;20118;-85
2022/01/19 00:05:23;;;;;;;128.18;38.13;;;4.60;99.90;;;;;;6178635;23;20012;-88
2022/01/19 00:08:12;;;;;;;124.57;38.20;;;4.60;99.90;;;;;;6178451;23;20020;-88
2022/01/19 00:11:16;;;;;;;131.35;37.92;;;4.60;99.90;;;;;;6178629;23;20457;-88
2022/01/19 00:13:53;;;;;;;;;;;;;;;;;;;;;
2022/01/19 00:16:31;;;;;;;140.55;39.25;;;4.60;99.90;;;;;;6193707;23;20089;-88
2022/01/19 00:19:06;;;;;;;139.20;41.08;;;4.60;99.90;;;;;;6179186;23;20016;-86
2022/01/19 00:21:41;;;;;;;151.13;41.78;;;4.60;99.90;;;;;;6181102;23;20044;-90
2022/01/19 00:24:07;;;;;;;154.60;43.90;;;4.60;99.90;;;;;;6132272;23;20012;-86
2022/01/19 00:26:33;;;;;;;141.88;42.65;;;4.60;99.90;;;;;;6133632;23;20016;-86
2022/01/19 00:29:07;;;;;;;130.77;37.72;;;4.60;99.90;;;;;;6180077;23;20020;-86
2022/01/19 00:31:37;;;;;;;133.65;40.25;;;4.60;99.90;;;;;;6181629;23;20373;-88
2022/01/19 00:34:13;;;;;;;118.18;36.67;;;4.60;99.90;;;;;;6205932;23;20021;-88
2022/01/19 00:36:42;;;;;;;98.78;32.83;;;4.60;99.90;;;;;;6157407;23;20071;-86
2022/01/19 00:39:32;;;;;;;109.85;33.28;;;4.60;99.90;;;;;;6178755;23;20020;-88
2022/01/19 00:42:00;;;;;;;101.30;31.55;;;4.70;99.90;;;;;;6178880;23;20013;-86
2022/01/19 00:44:30;;;;;;;103.45;32.35;;;4.60;99.90;;;;;;6204547;23;20081;-87
2022/01/19 00:46:57;;;;;;;101.78;33.13;;;4.60;99.90;;;;;;6180239;23;20448;-87
2022/01/19 00:49:50;;;;;;;114.85;35.92;;;4.60;99.90;;;;;;6131371;23;20031;-87
2022/01/19 00:52:50;;;;;;;104.55;32.53;;;4.60;99.90;;;;;;6178725;23;20012;-87
2022/01/19 01:07:41;;;;;;;102.40;32.75;;;4.60;99.90;;;;;;6149648;23;20017;-87
2022/01/19 01:10:25;;;;;;;100.65;32.22;;;4.60;99.90;;;;;;6142192;23;20410;-88
2022/01/19 01:13:17;;;;;;;99.82;32.38;;;4.70;99.90;;;;;;6162407;23;20024;-87
2022/01/19 01:16:17;;;;;;;107.22;33.10;;;4.70;99.90;;;;;;6190768;23;20020;-88
2022/01/19 01:18:46;;;;;;;79.40;28.63;;;4.70;99.90;;;;;;6206037;23;20016;-87
2022/01/19 01:24:44;;;;;;;97.80;29.77;;;4.70;99.90;;;;;;6144988;23;20099;-87
2022/01/19 01:27:18;;;;;;;85.20;28.92;;;4.60;99.90;;;;;;6180332;23;20021;-86
2022/01/19 01:29:47;;;;;;;86.82;30.38;;;4.60;99.90;;;;;;6180188;23;20020;-88
2022/01/19 01:32:14;;;;;;;91.38;29.55;;;4.50;99.90;;;;;;6177449;23;20020;-87
2022/01/19 01:34:50;;;;;;;97.07;30.20;;;4.40;99.90;;;;;;6205147;23;20024;-88
2022/01/19 01:37:30;;;;;;;86.28;28.13;;;4.30;99.90;;;;;;6182222;23;20017;-88
2022/01/19 01:40:01;;;;;;;91.10;29.23;;;4.20;99.90;;;;;;6205622;23;20068;-87
2022/01/19 01:42:34;;;;;;;90.63;28.83;;;4.10;99.90;;;;;;6176255;23;20393;-87
2022/01/19 01:45:27;;;;;;;;;;;;;;;;;;;;;
2022/01/19 01:48:18;;;;;;;94.95;30.45;;;4.00;99.90;;;;;;6180926;23;19915;-86
2022/01/19 01:54:01;;;;;;;103.38;31.27;;;4.00;99.90;;;;;;6145489;23;20021;-87
2022/01/19 02:00:22;;;;;;;99.03;30.50;;;4.00;99.90;;;;;;6157642;23;20095;-88
2022/01/19 02:03:23;;;;;;;104.18;30.35;;;4.00;99.90;;;;;;6102627;23;20024;-87
2022/01/19 02:10:32;;;;;;;103.55;31.45;;;3.90;99.90;;;;;;6081840;23;20420;-87
2022/01/19 02:23:34;;;;;;;143.98;36.75;;;3.90;99.90;;;;;;5910085;24;20021;-87
2022/01/19 02:26:47;;;;;;;138.70;37.28;;;3.90;99.90;;;;;;5944723;23;20108;-88
2022/01/19 02:42:55;;;;;;;166.73;38.78;;;4.00;99.90;;;;;;6058094;23;20246;-87
2022/01/19 02:51:19;;;;;;;175.95;39.60;;;4.00;99.90;;;;;;6181824;23;20016;-87
2022/01/19 02:53:48;;;;;;;175.35;40.03;;;4.10;99.90;;;;;;6204336;23;20095;-88
2022/01/19 02:56:35;;;;;;;183.82;40.10;;;4.10;99.90;;;;;;6202750;23;20017;-87
2022/01/19 02:59:16;;;;;;;173.45;39.88;;;4.10;99.90;;;;;;6203222;23;20017;-88
2022/01/19 03:15:13;;;;;;;226.23;39.33;;;4.00;99.90;;;;;;6202916;23;20043;-86
2022/01/19 03:17:40;;;;;;;185.90;37.88;;;4.00;99.90;;;;;;6183255;23;20080;-88
2022/01/19 03:20:08;;;;;;;190.82;39.28;;;4.00;99.90;;;;;;6178245;23;20024;-87
2022/01/19 03:22:40;;;;;;;227.30;40.88;;;3.90;99.90;;;;;;6178438;23;20016;-87
2022/01/19 03:25:12;;;;;;;252.73;40.25;;;3.90;99.90;;;;;;6129978;23;20016;-87
2022/01/19 03:27:53;;;;;;;250.13;40.95;;;3.90;99.90;;;;;;6204455;23;20484;-88
2022/01/19 03:30:25;;;;;;;191.95;39.17;;;3.90;99.90;;;;;;6204474;23;20020;-86
2022/01/19 03:32:51;;;;;;;222.55;39.30;;;3.90;99.90;;;;;;6177979;23;20017;-85
2022/01/19 03:35:17;;;;;;;224.35;40.65;;;3.80;99.90;;;;;;6129334;23;20100;-87
2022/01/19 03:37:42;;;;;;;231.23;40.90;;;3.90;99.90;;;;;;6178374;23;20013;-87
2022/01/19 03:40:09;;;;;;;248.93;42.55;;;3.80;99.90;;;;;;6178827;23;20020;-88
2022/01/19 03:42:35;;;;;;;258.52;43.75;;;3.80;99.90;;;;;;6178297;23;20009;-87
2022/01/19 03:45:03;;;;;;;247.77;44.40;;;3.80;99.90;;;;;;6203781;23;20008;-87
2022/01/19 03:47:39;;;;;;;193.18;38.83;;;3.80;99.90;;;;;;6182102;23;20024;-85
2022/01/19 03:50:06;;;;;;;203.48;41.88;;;3.80;99.90;;;;;;6179753;23;20016;-86
2022/01/19 03:52:49;;;;;;;260.85;47.45;;;3.80;99.90;;;;;;6130581;23;20017;-87
2022/01/19 03:55:15;;;;;;;188.75;40.10;;;3.80;99.90;;;;;;6179497;23;20016;-87
2022/01/19 03:58:07;;;;;;;235.77;46.08;;;3.80;99.90;;;;;;6179972;23;20017;-87
2022/01/19 04:00:40;;;;;;;197.38;42.42;;;3.70;99.90;;;;;;6177236;23;20013;-86
2022/01/19 04:03:21;;;;;;;189.35;41.80;;;3.80;99.90;;;;;;6180445;23;20055;-87
2022/01/19 04:09:17;;;;;;;198.38;42.78;;;3.80;99.90;;;;;;6204324;23;20379;-87
2022/01/19 04:12:54;;;;;;;207.57;44.63;;;3.80;99.90;;;;;;6179388;23;20051;-87
2022/01/19 04:15:43;;;;;;;;;;;;;;;;;;;;;
2022/01/19 04:19:20;;;;;;;142.43;37.80;;;3.80;99.90;;;;;;6203668;23;20017;-88
2022/01/19 04:22:18;;;;;;;;;;;;;;;;;;;;;
2022/01/19 04:24:53;;;;;;;148.70;37.63;;;3.70;99.90;;;;;;6212809;23;20012;-87
2022/01/19 04:27:44;;;;;;;160.25;38.17;;;3.70;99.90;;;;;;6162698;23;20445;-87
2022/01/19 07:20:01;;;;;;;84.97;33.45;;;3.50;99.90;;;;;;5927186;22;6528377;-86
2022/01/19 07:22:26;;;;;;;90.88;34.08;;;3.50;99.90;;;;;;6198171;23;20505;-85
2022/01/19 07:25:01;;;;;;;86.03;33.15;;;3.40;99.90;;;;;;6172128;23;20052;-87
2022/01/19 07:27:45;;;;;;;93.18;33.70;;;3.40;99.90;;;;;;6124742;23;20387;-86
2022/01/19 07:30:51;;;;;;;85.03;33.42;;;3.40;99.90;;;;;;6150695;23;20012;-87
2022/01/19 07:33:26;;;;;;;87.15;33.13;;;3.30;99.90;;;;;;6167069;23;20016;-86
2022/01/19 08:09:07;;;;;;;87.13;34.50;;;3.30;99.90;;;;;;6292190;22;20069;-85
2022/01/19 08:14:49;;;;;;;74.53;31.42;;;3.30;99.90;;;;;;6113285;23;20450;-85
2022/01/19 08:17:33;;;;;;;76.32;33.20;;;3.20;99.90;;;;;;6065053;23;20092;-87
2022/01/19 08:19:59;;;;;;;73.47;29.98;;;3.20;99.90;;;;;;6226635;22;20030;-87
2022/01/19 08:22:24;;;;;;;82.70;34.47;;;3.20;99.90;;;;;;6256822;22;20039;-88
2022/01/19 08:25:48;;;;;;;80.78;34.97;;;3.20;99.90;;;;;;6206412;22;20201;-88
2022/01/19 08:31:30;;;;;;;70.55;31.20;;;3.20;99.90;;;;;;6271026;22;20023;-86
2022/01/19 08:34:25;;;;;;;75.10;35.10;;;3.20;99.90;;;;;;6250347;22;20015;-87
2022/01/19 08:37:14;;;;;;;73.25;33.88;;;3.20;99.90;;;;;;6186952;22;20376;-86
2022/01/19 08:39:52;;;;;;;69.35;34.33;;;3.20;99.90;;;;;;6239390;22;20094;-88
2022/01/19 08:43:10;;;;;;;70.15;33.83;;;3.20;99.90;;;;;;6223537;22;20072;-88
2022/01/19 08:46:01;;;;;;;68.57;34.25;;;3.20;99.90;;;;;;6215440;22;20037;-89
2022/01/19 08:48:58;;;;;;;73.55;33.10;;;3.20;99.90;;;;;;6262866;22;20512;-88
2022/01/19 08:51:47;;;;;;;70.95;33.65;;;3.30;99.90;;;;;;6268553;22;20019;-88
2022/01/19 08:54:48;;;;;;;70.67;31.77;;;3.20;99.90;;;;;;6244957;22;20345;-87
2022/01/19 08:57:46;;;;;;;70.03;33.35;;;3.20;99.90;;;;;;6215281;22;20051;-87
2022/01/19 09:01:01;;;;;;;77.68;35.78;;;3.30;99.90;;;;;;6202131;23;20016;-87
2022/01/19 09:03:41;;;;;;;77.25;35.50;;;3.30;99.90;;;;;;6168651;23;20020;-88
2022/01/19 09:09:33;;;;;;;73.00;35.33;;;3.30;99.90;;;;;;6175458;23;20079;-89
2022/01/19 09:12:36;;;;;;;86.10;39.47;;;3.30;99.90;;;;;;6177992;23;20043;-89
2022/01/19 09:20:46;;;;;;;73.18;39.33;;;3.40;99.90;;;;;;6245131;22;20024;-89
2022/01/19 09:49:40;;;;;;;87.88;42.17;;;3.60;99.90;;;;;;6055651;23;20125;-88
2022/01/19 10:29:01;;;;;;;86.95;42.47;;;3.90;99.90;;;;;;6203577;23;20393;-87
2022/01/19 10:33:02;;;;;;;97.22;46.60;;;4.00;99.90;;;;;;6110641;23;20053;-86
2022/01/19 10:36:52;;;;;;;80.20;40.20;;;4.00;99.90;;;;;;6182841;22;20476;-89
2022/01/19 10:40:32;;;;;;;84.32;39.72;;;4.00;99.90;;;;;;6113270;23;20604;-87
2022/01/19 11:46:32;;;;;;;;;;;;;;;;;;;;;
2022/01/19 12:22:54;;;;;;;131.10;54.15;;;4.40;99.90;;;;;;6266483;22;20024;-89
2022/01/19 12:31:10;;;;;;;143.02;55.33;;;4.50;99.90;;;;;;6264449;22;20020;-88
2022/01/19 12:34:21;;;;;;;133.55;52.38;;;4.50;99.90;;;;;;6152884;23;20073;-92
2022/01/19 12:37:06;;;;;;;;;;;4.60;99.90;;;;;;6093001;23;20041;-87
2022/01/19 12:55:48;;;;;;;146.52;56.92;;;4.50;99.90;;;;;;5941911;24;20020;-88
2022/01/19 13:03:12;;;;;;;133.65;53.47;;;4.60;99.90;;;;;;5793906;24;20033;-88
2022/01/19 13:06:44;;;;;;;137.35;57.55;;;4.50;99.90;;;;;;5857278;24;20598;-90
2022/01/19 13:10:13;;;;;;;140.77;53.95;;;4.60;99.90;;;;;;5838336;24;20496;-88
2022/01/19 13:17:52;;;;;;;139.50;54.95;;;4.50;99.90;;;;;;5756297;24;20082;-89
2022/01/19 13:28:27;;;;;;;140.18;56.45;;;4.50;99.90;;;;;;5756061;24;20034;-88
2022/01/19 13:31:57;;;;;;;134.98;55.83;;;4.50;99.90;;;;;;5800347;24;20544;-89
2022/01/19 13:37:59;;;;;;;133.48;54.45;;;4.60;99.90;;;;;;5741938;24;20027;-87
2022/01/19 13:44:22;;;;;;;124.60;53.75;;;4.60;99.90;;;;;;5915600;24;20060;-87
2022/01/19 13:47:15;;;;;;;101.32;42.22;;;4.70;99.90;;;;;;5838706;24;20022;-88
2022/01/19 13:50:01;;;;;;;124.97;49.70;;;4.80;99.90;;;;;;5867925;24;20094;-87
2022/01/19 13:53:08;;;;;;;;;;;;;;;;;;;;;
2022/01/19 13:56:28;;;;;;;112.03;48.63;;;4.80;99.90;;;;;;5822538;24;20365;-87
2022/01/19 13:59:46;;;;;;;;;;;;;;;;;;;;;
2022/01/19 14:02:33;;;;;;;108.78;48.25;;;4.90;99.90;;;;;;5873060;24;20020;-86
2022/01/19 14:05:04;;;;;;;103.35;47.15;;;4.90;99.90;;;;;;5930180;24;20081;-88
2022/01/19 14:07:58;;;;;;;114.07;49.65;;;4.90;99.90;;;;;;5948937;24;20024;-86
2022/01/19 14:10:51;;;;;;;106.60;46.63;;;5.00;99.90;;;;;;5948037;24;20119;-85
2022/01/19 14:13:42;;;;;;;107.03;46.00;;;4.90;99.90;;;;;;5948742;24;20096;-85
2022/01/19 14:16:57;;;;;;;97.80;42.30;;;5.00;99.90;;;;;;5949360;24;20027;-87
2022/01/19 14:19:56;;;;;;;90.07;41.15;;;4.90;99.90;;;;;;5987648;23;20015;-90
2022/01/19 14:22:38;;;;;;;80.00;37.78;;;5.00;99.90;;;;;;6059040;23;20078;-92
2022/01/19 14:25:13;;;;;;;87.15;39.17;;;5.00;99.90;;;;;;6093252;23;20061;-87
2022/01/19 14:27:58;;;;;;;85.97;40.65;;;5.10;99.90;;;;;;6069508;23;20336;-89
2022/01/19 14:31:03;;;;;;;104.65;41.85;;;5.10;99.90;;;;;;6060325;23;20029;-88
2022/01/19 14:33:46;;;;;;;85.93;38.95;;;5.10;99.90;;;;;;6115490;23;20021;-88
2022/01/19 14:36:23;;;;;;;95.18;41.25;;;5.10;99.90;;;;;;6178486;23;20027;-87
2022/01/19 14:38:59;;;;;;;101.70;41.85;;;5.10;99.90;;;;;;6186976;23;20021;-88
2022/01/19 14:41:37;;;;;;;105.18;44.25;;;5.10;99.90;;;;;;6193236;23;20445;-87
2022/01/19 14:44:20;;;;;;;100.20;44.17;;;5.10;99.90;;;;;;6143868;23;20077;-91
2022/01/19 14:47:16;;;;;;;99.75;42.50;;;5.10;99.90;;;;;;6166380;23;20046;-86
2022/01/19 14:49:42;;;;;;;96.35;43.30;;;5.00;99.90;;;;;;6186535;23;20263;-89
2022/01/19 14:52:12;;;;;;;93.90;41.75;;;5.00;99.90;;;;;;6188347;23;20034;-87
2022/01/19 14:54:41;;;;;;;113.45;46.17;;;5.00;99.90;;;;;;6185877;23;20344;-89
2022/01/19 14:57:18;;;;;;;107.93;44.75;;;5.00;99.90;;;;;;6187510;23;20012;-87
2022/01/19 14:59:59;;;;;;;105.80;43.60;;;5.00;99.90;;;;;;6138505;23;20020;-89
2022/01/19 15:02:25;;;;;;;108.85;46.47;;;5.00;99.90;;;;;;6188261;23;20432;-85
2022/01/19 15:04:51;;;;;;;114.55;43.60;;;5.00;99.90;;;;;;6139321;23;20087;-89
2022/01/19 15:07:17;;;;;;;101.40;44.72;;;5.00;99.90;;;;;;6188464;23;20016;-84
2022/01/19 15:09:43;;;;;;;110.50;44.58;;;5.00;99.90;;;;;;6138843;23;20729;-89
2022/01/19 15:12:16;;;;;;;103.05;45.40;;;5.00;99.90;;;;;;6164670;23;20012;-89
2022/01/19 15:14:45;;;;;;;116.45;45.33;;;5.00;99.90;;;;;;6164215;23;20012;-86
2022/01/19 15:17:17;;;;;;;116.05;45.85;;;5.10;99.90;;;;;;6161139;23;20109;-87
2022/01/19 15:19:49;;;;;;;119.65;45.25;;;5.10;99.90;;;;;;6138396;23;20016;-86
2022/01/19 15:22:15;;;;;;;126.30;46.28;;;5.10;99.90;;;;;;6161497;23;20014;-87
2022/01/19 15:24:42;;;;;;;131.75;48.95;;;5.10;99.90;;;;;;6186830;23;20008;-87
2022/01/19 15:27:17;;;;;;;127.50;49.78;;;5.00;99.90;;;;;;6140158;23;20043;-86
2022/01/19 15:29:53;;;;;;;122.03;44.53;;;5.10;99.90;;;;;;6197664;23;20072;-85
2022/01/19 15:32:49;;;;;;;122.88;46.97;;;5.10;99.90;;;;;;6171296;23;20008;-89
2022/01/19 15:35:19;;;;;;;122.90;46.25;;;5.10;99.90;;;;;;6183804;23;20008;-87
2022/01/19 15:37:46;;;;;;;123.85;45.97;;;5.10;99.90;;;;;;6163146;23;20055;-87
2022/01/19 15:40:28;;;;;;;119.30;44.45;;;5.10;99.90;;;;;;6186638;23;20016;-85
2022/01/19 15:43:09;;;;;;;130.52;45.97;;;5.20;99.90;;;;;;6184998;23;20098;-87
2022/01/19 15:45:45;;;;;;;138.05;46.95;;;5.20;99.90;;;;;;6186873;23;20477;-85
2022/01/19 15:48:30;;;;;;;130.77;45.65;;;5.10;99.90;;;;;;6210164;23;20102;-88
2022/01/19 15:50:58;;;;;;;112.30;43.40;;;5.20;99.90;;;;;;6185741;23;20469;-87
2022/01/19 15:53:28;;;;;;;117.97;45.17;;;5.20;99.90;;;;;;6159387;23;20107;-90
2022/01/19 15:56:18;;;;;;;125.28;46.15;;;5.20;99.90;;;;;;6160447;23;20016;-88
2022/01/19 15:59:00;;;;;;;114.70;42.42;;;5.20;99.90;;;;;;6174126;23;20024;-88
2022/01/19 16:01:26;;;;;;;115.00;42.25;;;5.20;99.90;;;;;;6183691;23;20051;-88
2022/01/19 16:04:12;;;;;;;133.38;43.58;;;5.30;99.90;;;;;;6134036;23;20091;-87
2022/01/19 16:06:42;;;;;;;114.25;42.33;;;5.30;99.90;;;;;;6184142;23;20501;-87
2022/01/19 16:09:10;;;;;;;136.00;44.05;;;5.30;99.90;;;;;;6183146;23;20028;-88
2022/01/19 16:12:10;;;;;;;123.50;42.55;;;5.30;99.90;;;;;;6184139;23;20019;-85
2022/01/19 16:14:49;;;;;;;117.28;41.25;;;5.30;99.90;;;;;;6159527;23;20012;-86
2022/01/19 16:17:21;;;;;;;119.63;43.15;;;5.30;99.90;;;;;;6160220;23;20203;-87
2022/01/19 16:19:51;;;;;;;127.90;44.20;;;5.40;99.90;;;;;;6160236;23;20076;-87
2022/01/19 16:28:13;;;;;;;107.60;39.70;;;5.40;99.90;;;;;;6185921;23;20635;-86
2022/01/19 16:30:55;;;;;;;134.20;40.35;;;5.50;99.90;;;;;;6186124;23;20193;-87
2022/01/19 16:34:05;;;;;;;109.75;36.70;;;5.50;99.90;;;;;;6185112;23;20345;-87
2022/01/19 16:36:39;;;;;;;117.78;38.65;;;5.50;99.90;;;;;;6184574;23;20044;-89
2022/01/19 16:39:10;;;;;;;112.53;37.47;;;5.60;99.90;;;;;;6158378;23;20015;-88
2022/01/19 16:41:59;;;;;;;109.00;36.17;;;5.60;99.90;;;;;;6183804;23;20454;-88
2022/01/19 16:44:41;;;;;;;97.60;33.08;;;5.60;99.90;;;;;;6186094;23;20243;-89
2022/01/19 16:47:16;;;;;;;113.33;35.80;;;5.70;99.90;;;;;;6159384;23;20099;-87
2022/01/19 16:49:53;;;;;;;110.13;33.85;;;5.70;99.90;;;;;;6172815;23;20594;-87
2022/01/19 16:52:22;;;;;;;125.28;34.22;;;5.70;99.90;;;;;;6174466;23;20019;-88
2022/01/19 17:11:09;;;;;;;84.68;22.70;;;5.90;99.90;;;;;;6283280;22;20038;-86
2022/01/19 17:14:23;;;;;;;63.60;17.80;;;6.00;99.90;;;;;;6242050;22;20212;-86
2022/01/19 17:21:01;;;;;;;26.98;6.13;;;6.00;99.90;;;;;;6265300;22;20062;-86
2022/01/19 17:27:29;;;;;;;16.77;3.22;;;6.00;99.90;;;;;;6267299;22;20027;-86
2022/01/19 17:34:03;;;;;;;17.40;3.00;;;5.90;99.90;;;;;;6171537;22;20055;-88
2022/01/19 17:51:30;;;;;;;29.38;3.63;;;5.80;99.90;;;;;;6298317;22;20022;-87
2022/01/19 17:54:08;;;;;;;35.33;3.28;;;5.80;99.90;;;;;;6118304;23;20108;-85
2022/01/19 17:56:48;;;;;;;;;;;;;;;;;;;;;
2022/01/19 18:11:17;;;;;;;;;;;;;;;;;;;;;
2022/01/19 18:16:45;;;;;;;28.45;3.38;;;5.70;99.90;;;;;;6260567;22;20028;-85
2022/01/19 18:31:01;;;;;;;45.95;4.55;;;5.60;99.90;;;;;;6177924;23;20078;-87
2022/01/19 18:41:29;;;;;;;61.20;6.10;;;5.70;99.90;;;;;;6160623;23;20706;-84
2022/01/19 18:44:17;;;;;;;59.58;5.28;;;5.60;99.90;;;;;;6120659;23;20542;-85
2022/01/19 18:46:58;;;;;;;50.00;5.65;;;5.60;99.90;;;;;;6100804;23;20019;-85
2022/01/19 18:49:55;;;;;;;43.90;5.28;;;5.60;99.90;;;;;;6136069;22;20475;-84
2022/01/19 19:00:38;;;;;;;53.17;6.00;;;5.50;99.90;;;;;;6075781;23;20021;-85
2022/01/19 19:03:26;;;;;;;58.25;7.18;;;5.40;99.90;;;;;;6084057;23;20246;-87
2022/01/19 19:06:36;;;;;;;46.03;6.22;;;5.20;99.90;;;;;;6194805;22;20263;-85
2022/01/19 19:16:33;;;;;;;69.93;6.78;;;5.20;99.90;;;;;;6086299;23;20443;-88
2022/01/19 19:19:52;;;;;;;61.63;6.32;;;5.20;99.90;;;;;;6034442;23;20184;-85
2022/01/19 19:26:28;;;;;;;74.13;6.93;;;5.30;99.90;;;;;;5877233;24;20103;-85
2022/01/19 19:29:05;;;;;;;54.63;6.72;;;5.30;99.90;;;;;;5890728;24;20056;-84
2022/01/19 19:31:57;;;;;;;59.58;6.25;;;5.40;99.90;;;;;;5885744;24;20032;-85
2022/01/19 19:34:29;;;;;;;52.13;6.95;;;5.40;99.90;;;;;;5891096;24;20019;-82
2022/01/19 19:37:05;;;;;;;43.25;5.45;;;5.40;99.90;;;;;;5893383;24;20021;-85
2022/01/19 19:39:32;;;;;;;50.65;4.68;;;5.40;99.90;;;;;;5911429;24;20027;-84
2022/01/19 19:42:54;;;;;;;41.25;5.20;;;5.30;99.90;;;;;;5923624;24;20055;-87
2022/01/19 19:45:54;;;;;;;42.10;4.45;;;5.30;99.90;;;;;;5977143;23;20012;-86
2022/01/19 19:48:41;;;;;;;42.13;4.40;;;5.20;99.90;;;;;;5987040;23;20066;-86
2022/01/19 19:51:25;;;;;;;53.17;5.30;;;5.10;99.90;;;;;;6154060;23;20533;-87
2022/01/19 19:53:54;;;;;;;44.67;4.05;;;5.10;99.90;;;;;;6182607;23;20336;-87
2022/01/19 20:05:44;;;;;;;28.48;3.10;;;4.70;99.90;;;;;;6265158;22;20019;-86
2022/01/19 20:09:31;;;;;;;46.72;4.72;;;4.60;99.90;;;;;;6093376;22;20022;-86
2022/01/19 20:12:12;;;;;;;36.22;4.20;;;4.50;99.90;;;;;;6214891;22;20594;-84
2022/01/19 20:15:10;;;;;;;27.23;3.15;;;4.40;99.90;;;;;;6213393;22;20012;-85
2022/01/19 20:35:26;;;;;;;;;;;;;;;;;;;;;
2022/01/19 20:39:12;;;;;;;32.88;3.85;;;4.00;99.90;;;;;;6147943;23;20029;-87
2022/01/19 20:52:40;;;;;;;37.72;3.15;;;3.90;99.90;;;;;;6054856;23;20026;-87
2022/01/19 20:55:21;;;;;;;38.15;4.18;;;3.80;99.90;;;;;;6073442;22;20034;-85
2022/01/19 20:58:23;;;;;;;;;;;;;;;;;;;;;
2022/01/19 21:01:09;;;;;;;43.15;4.35;;;3.80;99.90;;;;;;6125456;23;20024;-85
2022/01/19 21:10:42;;;;;;;38.60;3.75;;;3.70;99.90;;;;;;6265042;22;20030;-86
2022/01/19 21:47:00;;;;;;;40.22;4.25;;;3.00;99.90;;;;;;6231573;22;20512;-83
2022/01/19 21:49:44;;;;;;;41.93;4.63;;;2.90;99.90;;;;;;6195081;23;20043;-85
2022/01/19 21:52:35;;;;;;;60.95;5.05;;;2.90;99.90;;;;;;6121651;23;20016;-85
2022/01/19 22:38:39;;;;;;;42.63;4.43;;;2.90;99.90;;;;;;6271344;22;20444;-85
2022/01/19 22:41:28;;;;;;;60.53;6.30;;;2.90;99.90;;;;;;6240086;22;20023;-84
2022/01/19 22:47:47;;;;;;;42.63;5.82;;;2.90;99.90;;;;;;6238520;22;20284;-85
2022/01/19 22:50:25;;;;;;;38.42;4.82;;;3.00;99.90;;;;;;6213109;22;20646;-84
2022/01/19 22:53:12;;;;;;;29.70;4.50;;;3.00;99.90;;;;;;6210596;22;20046;-84
2022/01/19 22:56:12;;;;;;;44.05;5.05;;;3.00;99.90;;;;;;6211123;22;20022;-84
2022/01/19 22:58:48;;;;;;;33.35;4.32;;;3.10;99.90;;;;;;6152351;23;20255;-83
2022/01/19 23:01:20;;;;;;;39.80;4.90;;;3.10;99.90;;;;;;6213409;22;20019;-83
2022/01/19 23:06:47;;;;;;;26.90;3.63;;;3.10;99.90;;;;;;6262861;22;20023;-83
2022/01/19 23:09:14;;;;;;;31.02;4.22;;;3.10;99.90;;;;;;6236790;22;20016;-83
2022/01/19 23:15:27;;;;;;;34.22;3.38;;;3.10;99.90;;;;;;6264548;22;20204;-83
2022/01/19 23:18:14;;;;;;;38.47;4.05;;;3.20;99.90;;;;;;6237940;22;20585;-84
2022/01/19 23:20:43;;;;;;;26.90;2.72;;;3.10;99.90;;;;;;6215675;22;20012;-83
2022/01/19 23:23:28;;;;;;;26.77;3.30;;;3.10;99.90;;;;;;6236816;22;20019;-84
2022/01/19 23:29:23;;;;;;;39.92;4.70;;;3.10;99.90;;;;;;6268090;22;20262;-86
2022/01/19 23:32:13;;;;;;;32.72;3.30;;;3.20;99.90;;;;;;6241920;22;20104;-84
2022/01/19 23:34:52;;;;;;;19.38;2.75;;;3.20;99.90;;;;;;6212524;22;20019;-85
2022/01/19 23:37:51;;;;;;;32.05;4.07;;;3.20;99.90;;;;;;6242140;22;20057;-83
2022/01/19 23:50:04;;;;;;;25.90;2.60;;;3.30;99.90;;;;;;6268659;22;20031;-84
2022/01/19 23:53:14;;;;;;;26.88;3.10;;;3.30;99.90;;;;;;6218006;22;20022;-85
